createdAt,value
2018-11-14T00:00:37.595Z,26.10
2018-11-14T00:01:37.535Z,26.10
2018-11-14T00:02:37.540Z,26.15
2018-11-14T00:03:37.576Z,26.10
2018-11-14T00:04:37.547Z,26.10
2018-11-14T00:05:37.550Z,26.10
2018-11-14T00:06:37.554Z,26.07
2018-11-14T00:07:37.560Z,26.12
2018-11-14T00:08:37.562Z,26.09
2018-11-14T00:09:37.643Z,26.09
2018-11-14T00:10:37.567Z,26.10
2018-11-14T00:11:37.572Z,26.07
2018-11-14T00:12:37.579Z,26.18
2018-11-14T00:13:37.579Z,26.12
2018-11-14T00:14:37.581Z,26.12
2018-11-14T00:15:37.585Z,26.12
2018-11-14T00:16:37.610Z,26.10
2018-11-14T00:17:37.592Z,26.07
2018-11-14T00:18:37.599Z,26.07
2018-11-14T00:19:37.599Z,26.10
2018-11-14T00:20:37.604Z,26.10
2018-11-14T00:21:37.606Z,26.10
2018-11-14T00:22:37.610Z,26.10
2018-11-14T00:23:37.622Z,26.12
2018-11-14T00:24:37.660Z,26.12
2018-11-14T00:25:37.620Z,26.13
2018-11-14T00:26:37.645Z,26.13
2018-11-14T00:27:37.633Z,26.09
2018-11-14T00:28:37.732Z,26.12
2018-11-14T00:29:37.634Z,26.15
2018-11-14T00:30:37.636Z,26.09
2018-11-14T00:31:37.644Z,26.10
2018-11-14T00:32:37.644Z,26.12
2018-11-14T00:33:37.649Z,26.15
2018-11-14T00:34:37.687Z,26.10
2018-11-14T00:35:37.709Z,26.17
2018-11-14T00:36:37.661Z,26.15
2018-11-14T00:37:37.662Z,26.15
2018-11-14T00:38:37.665Z,26.13
2018-11-14T00:39:37.670Z,26.10
2018-11-14T00:40:37.686Z,26.13
2018-11-14T00:41:37.682Z,26.12
2018-11-14T00:42:37.678Z,26.02
2018-11-14T00:43:37.685Z,26.12
2018-11-14T00:44:37.689Z,26.10
2018-11-14T00:45:37.690Z,26.15
2018-11-14T00:46:37.692Z,26.09
2018-11-14T00:47:37.701Z,26.12
2018-11-14T00:48:37.700Z,26.15
2018-11-14T00:49:37.703Z,26.12
2018-11-14T00:50:37.705Z,26.13
2018-11-14T00:51:37.709Z,26.15
2018-11-14T00:52:37.720Z,26.09
2018-11-14T00:53:37.723Z,26.09
2018-11-14T00:54:37.722Z,26.13
2018-11-14T00:55:37.727Z,26.10
2018-11-14T00:56:37.726Z,26.10
2018-11-14T00:57:37.740Z,26.10
2018-11-14T00:58:37.759Z,26.10
2018-11-14T00:59:37.737Z,26.07
2018-11-14T01:00:37.742Z,26.10
2018-11-14T01:01:37.841Z,26.15
2018-11-14T01:02:37.750Z,26.12
2018-11-14T01:03:37.751Z,26.09
2018-11-14T01:04:37.758Z,26.13
2018-11-14T01:05:37.759Z,26.09
2018-11-14T01:06:37.763Z,26.13
2018-11-14T01:07:37.765Z,26.12
2018-11-14T01:08:37.769Z,26.10
2018-11-14T01:09:37.772Z,26.10
2018-11-14T01:10:37.775Z,26.12
2018-11-14T01:11:37.780Z,26.10
2018-11-14T01:12:37.782Z,26.10
2018-11-14T01:13:37.791Z,26.09
2018-11-14T01:14:37.789Z,26.10
2018-11-14T01:15:37.794Z,26.12
2018-11-14T01:16:37.809Z,26.15
2018-11-14T01:17:38.138Z,26.07
2018-11-14T01:18:37.803Z,26.15
2018-11-14T01:19:37.812Z,26.09
2018-11-14T01:20:37.812Z,26.13
2018-11-14T01:21:37.852Z,26.13
2018-11-14T01:22:37.816Z,26.12
2018-11-14T01:23:37.829Z,26.12
2018-11-14T01:24:37.851Z,26.09
2018-11-14T01:25:37.828Z,26.09
2018-11-14T01:26:37.829Z,26.17
2018-11-14T01:27:37.834Z,26.13
2018-11-14T01:28:37.841Z,26.17
2018-11-14T01:29:37.843Z,26.13
2018-11-14T01:30:37.861Z,26.10
2018-11-14T01:31:37.851Z,26.15
2018-11-14T01:32:37.855Z,26.12
2018-11-14T01:33:37.860Z,26.15
2018-11-14T01:34:37.862Z,26.13
2018-11-14T01:35:37.908Z,26.13
2018-11-14T01:36:37.866Z,26.10
2018-11-14T01:37:37.891Z,26.10
2018-11-14T01:38:37.873Z,26.10
2018-11-14T01:39:37.876Z,26.13
2018-11-14T01:40:37.879Z,26.10
2018-11-14T01:41:37.889Z,26.12
2018-11-14T01:42:37.886Z,26.07
2018-11-14T01:43:37.890Z,26.15
2018-11-14T01:44:37.895Z,26.10
2018-11-14T01:45:37.897Z,26.10
2018-11-14T01:46:37.898Z,26.18
2018-11-14T01:47:37.905Z,26.09
2018-11-14T01:48:37.907Z,26.06
2018-11-14T01:49:37.964Z,26.15
2018-11-14T01:50:37.914Z,26.10
2018-11-14T01:51:37.917Z,26.12
2018-11-14T01:52:38.012Z,26.10
2018-11-14T01:53:37.926Z,26.10
2018-11-14T01:54:37.927Z,26.10
2018-11-14T01:55:37.935Z,26.10
2018-11-14T01:56:37.935Z,26.09
2018-11-14T01:57:37.940Z,26.10
2018-11-14T01:58:37.945Z,26.15
2018-11-14T01:59:37.951Z,26.10
2018-11-14T02:00:37.951Z,26.10
2018-11-14T02:01:37.953Z,26.09
2018-11-14T02:02:37.955Z,26.10
2018-11-14T02:03:37.959Z,26.10
2018-11-14T02:04:37.995Z,26.10
2018-11-14T02:05:37.966Z,26.15
2018-11-14T02:06:37.972Z,26.10
2018-11-14T02:07:38.050Z,26.07
2018-11-14T02:08:37.982Z,26.17
2018-11-14T02:09:37.980Z,26.12
2018-11-14T02:10:37.984Z,26.06
2018-11-14T02:11:37.986Z,26.10
2018-11-14T02:12:37.991Z,26.13
2018-11-14T02:13:38.034Z,26.05
2018-11-14T02:14:37.997Z,26.10
2018-11-14T02:15:38.002Z,26.15
2018-11-14T02:16:38.005Z,26.10
2018-11-14T02:17:38.011Z,26.12
2018-11-14T02:18:38.012Z,26.13
2018-11-14T02:19:38.015Z,26.17
2018-11-14T02:20:38.019Z,26.12
2018-11-14T02:21:38.021Z,26.13
2018-11-14T02:22:38.060Z,26.13
2018-11-14T02:23:38.029Z,26.12
2018-11-14T02:24:38.032Z,26.10
2018-11-14T02:25:38.041Z,26.12
2018-11-14T02:26:38.044Z,26.13
2018-11-14T02:27:38.043Z,26.09
2018-11-14T02:28:38.048Z,26.15
2018-11-14T02:29:38.050Z,26.12
2018-11-14T02:30:38.052Z,26.13
2018-11-14T02:31:38.055Z,26.10
2018-11-14T02:32:38.110Z,26.09
2018-11-14T02:33:38.064Z,26.13
2018-11-14T02:34:38.068Z,26.10
2018-11-14T02:35:38.070Z,26.13
2018-11-14T02:36:38.079Z,26.09
2018-11-14T02:37:38.084Z,26.10
2018-11-14T02:38:38.087Z,26.10
2018-11-14T02:39:38.084Z,26.10
2018-11-14T02:40:38.092Z,26.10
2018-11-14T02:41:38.091Z,26.10
2018-11-14T02:42:38.094Z,26.18
2018-11-14T02:43:38.098Z,26.09
2018-11-14T02:44:38.102Z,26.07
2018-11-14T02:45:38.116Z,26.12
2018-11-14T02:46:38.109Z,26.06
2018-11-14T02:47:38.117Z,26.10
2018-11-14T02:48:38.117Z,26.10
2018-11-14T02:49:38.119Z,26.10
2018-11-14T02:50:38.129Z,26.07
2018-11-14T02:51:38.126Z,26.07
2018-11-14T02:52:38.130Z,26.12
2018-11-14T02:53:38.170Z,26.13
2018-11-14T02:54:38.137Z,26.12
2018-11-14T02:55:38.140Z,26.17
2018-11-14T02:56:38.144Z,26.09
2018-11-14T02:57:38.151Z,26.09
2018-11-14T02:58:38.151Z,26.12
2018-11-14T02:59:38.159Z,26.13
2018-11-14T03:00:38.210Z,26.12
2018-11-14T03:01:38.162Z,26.10
2018-11-14T03:02:38.164Z,26.13
2018-11-14T03:03:38.173Z,26.10
2018-11-14T03:04:38.175Z,26.09
2018-11-14T03:05:38.175Z,26.13
2018-11-14T03:06:38.178Z,26.13
2018-11-14T03:07:38.182Z,26.12
2018-11-14T03:08:38.197Z,26.12
2018-11-14T03:09:38.190Z,26.09
2018-11-14T03:10:38.196Z,26.15
2018-11-14T03:11:38.195Z,26.12
2018-11-14T03:12:38.295Z,26.10
2018-11-14T03:13:38.211Z,26.13
2018-11-14T03:14:38.213Z,26.10
2018-11-14T03:15:38.209Z,26.13
2018-11-14T03:16:38.212Z,26.13
2018-11-14T03:17:38.215Z,26.07
2018-11-14T03:18:38.218Z,26.15
2018-11-14T03:19:38.252Z,26.17
2018-11-14T03:20:38.227Z,26.12
2018-11-14T03:21:38.230Z,26.13
2018-11-14T03:22:38.234Z,26.12
2018-11-14T03:23:38.237Z,26.12
2018-11-14T03:24:38.241Z,26.17
2018-11-14T03:25:38.244Z,26.10
2018-11-14T03:26:38.246Z,26.10
2018-11-14T03:27:38.250Z,26.10
2018-11-14T03:28:38.259Z,26.12
2018-11-14T03:29:38.257Z,26.10
2018-11-14T03:30:38.262Z,26.13
2018-11-14T03:31:38.265Z,26.10
2018-11-14T03:32:38.271Z,26.13
2018-11-14T03:33:38.272Z,26.13
2018-11-14T03:34:38.280Z,26.09
2018-11-14T03:35:38.359Z,26.13
2018-11-14T03:36:38.282Z,26.10
2018-11-14T03:37:38.286Z,26.09
2018-11-14T03:38:38.288Z,26.13
2018-11-14T03:39:38.299Z,26.09
2018-11-14T03:40:38.295Z,26.09
2018-11-14T03:41:38.303Z,26.18
2018-11-14T03:42:38.306Z,26.10
2018-11-14T03:43:38.307Z,26.13
2018-11-14T03:44:38.310Z,26.10
2018-11-14T03:45:38.314Z,26.06
2018-11-14T03:46:38.318Z,26.12
2018-11-14T03:47:38.320Z,26.13
2018-11-14T03:48:38.323Z,26.13
2018-11-14T03:49:38.328Z,26.13
2018-11-14T03:50:38.331Z,26.10
2018-11-14T03:51:38.334Z,26.09
2018-11-14T03:52:38.337Z,26.13
2018-11-14T03:53:38.343Z,26.09
2018-11-14T03:54:38.344Z,26.12
2018-11-14T03:55:38.347Z,26.13
2018-11-14T03:56:38.352Z,26.13
2018-11-14T03:57:38.359Z,26.13
2018-11-14T03:58:38.358Z,26.15
2018-11-14T03:59:38.392Z,26.12
2018-11-14T04:00:38.366Z,26.12
2018-11-14T04:01:38.370Z,26.18
2018-11-14T04:02:38.379Z,26.17
2018-11-14T04:03:38.377Z,26.12
2018-11-14T04:04:38.472Z,26.09
2018-11-14T04:05:38.403Z,26.07
2018-11-14T04:06:38.385Z,26.10
2018-11-14T04:07:38.399Z,26.12
2018-11-14T04:08:38.393Z,26.10
2018-11-14T04:09:38.395Z,26.13
2018-11-14T04:10:38.400Z,26.13
2018-11-14T04:11:38.404Z,26.18
2018-11-14T04:12:38.407Z,26.17
2018-11-14T04:13:38.410Z,26.06
2018-11-14T04:14:38.417Z,26.15
2018-11-14T04:15:38.420Z,26.17
2018-11-14T04:16:38.420Z,26.17
2018-11-14T04:17:38.424Z,26.07
2018-11-14T04:18:38.428Z,26.13
2018-11-14T04:19:38.434Z,26.17
2018-11-14T04:20:38.435Z,26.09
2018-11-14T04:21:38.438Z,26.06
2018-11-14T04:22:38.458Z,26.12
2018-11-14T04:23:38.445Z,26.10
2018-11-14T04:24:38.451Z,26.12
2018-11-14T04:25:38.452Z,26.12
2018-11-14T04:26:38.455Z,26.15
2018-11-14T04:27:38.458Z,26.09
2018-11-14T04:28:38.462Z,26.12
2018-11-14T04:29:38.466Z,26.13
2018-11-14T04:30:38.468Z,26.10
2018-11-14T04:31:38.473Z,26.15
2018-11-14T04:32:38.481Z,26.13
2018-11-14T04:33:38.480Z,26.20
2018-11-14T04:34:38.482Z,26.13
2018-11-14T04:35:38.488Z,26.15
2018-11-14T04:36:38.491Z,26.13
2018-11-14T04:37:38.498Z,26.13
2018-11-14T04:38:38.495Z,26.13
2018-11-14T04:39:38.500Z,26.21
2018-11-14T04:40:38.503Z,26.07
2018-11-14T04:41:38.507Z,26.15
2018-11-14T04:42:38.510Z,26.12
2018-11-14T04:43:38.516Z,26.13
2018-11-14T04:44:38.519Z,26.13
2018-11-14T04:45:38.521Z,26.12
2018-11-14T04:46:38.528Z,26.06
2018-11-14T04:47:38.530Z,26.13
2018-11-14T04:48:38.533Z,26.12
2018-11-14T04:49:38.548Z,26.13
2018-11-14T04:50:38.539Z,26.07
2018-11-14T04:51:38.617Z,26.17
2018-11-14T04:52:38.547Z,26.17
2018-11-14T04:53:38.550Z,26.13
2018-11-14T04:54:38.553Z,26.12
2018-11-14T04:55:38.559Z,26.20
2018-11-14T04:56:38.567Z,26.17
2018-11-14T04:57:38.637Z,26.06
2018-11-14T04:58:38.566Z,26.06
2018-11-14T04:59:38.570Z,26.17
2018-11-14T05:00:38.574Z,26.13
2018-11-14T05:01:38.582Z,26.17
2018-11-14T05:02:38.666Z,26.17
2018-11-14T05:03:38.600Z,26.07
2018-11-14T05:04:38.590Z,26.12
2018-11-14T05:05:38.593Z,26.20
2018-11-14T05:06:38.594Z,26.09
2018-11-14T05:07:38.598Z,26.15
2018-11-14T05:08:38.602Z,26.09
2018-11-14T05:09:38.605Z,26.12
2018-11-14T05:10:38.608Z,26.13
2018-11-14T05:11:38.612Z,26.06
2018-11-14T05:12:38.615Z,26.09
2018-11-14T05:13:38.620Z,26.10
2018-11-14T05:14:38.630Z,26.13
2018-11-14T05:15:38.669Z,26.15
2018-11-14T05:16:38.629Z,26.15
2018-11-14T05:17:38.633Z,26.13
2018-11-14T05:18:38.636Z,26.13
2018-11-14T05:19:38.641Z,26.13
2018-11-14T05:20:38.645Z,26.13
2018-11-14T05:21:38.647Z,26.17
2018-11-14T05:22:38.650Z,26.12
2018-11-14T05:23:38.653Z,26.09
2018-11-14T05:24:38.747Z,26.17
2018-11-14T05:25:38.661Z,26.18
2018-11-14T05:26:38.664Z,26.15
2018-11-14T05:27:38.668Z,26.13
2018-11-14T05:28:38.672Z,26.06
2018-11-14T05:29:38.675Z,26.23
2018-11-14T05:30:38.678Z,26.25
2018-11-14T05:31:38.702Z,26.20
2018-11-14T05:32:38.685Z,26.15
2018-11-14T05:33:38.689Z,26.23
2018-11-14T05:34:38.692Z,26.12
2018-11-14T05:35:38.695Z,26.18
2018-11-14T05:36:38.699Z,26.20
2018-11-14T05:37:38.704Z,26.21
2018-11-14T05:38:38.707Z,26.23
2018-11-14T05:39:38.767Z,26.18
2018-11-14T05:40:38.714Z,26.23
2018-11-14T05:41:38.718Z,26.17
2018-11-14T05:42:38.720Z,26.18
2018-11-14T05:43:38.749Z,26.21
2018-11-14T05:44:38.733Z,26.21
2018-11-14T05:45:38.823Z,26.07
2018-11-14T05:46:38.734Z,26.13
2018-11-14T05:47:38.736Z,26.12
2018-11-14T05:48:38.741Z,26.15
2018-11-14T05:49:38.747Z,26.17
2018-11-14T05:50:38.748Z,26.17
2018-11-14T05:51:38.751Z,26.09
2018-11-14T05:52:38.755Z,26.23
2018-11-14T05:53:38.759Z,26.18
2018-11-14T05:54:38.767Z,26.23
2018-11-14T05:55:38.766Z,26.25
2018-11-14T05:56:38.774Z,26.13
2018-11-14T05:57:38.778Z,26.26
2018-11-14T05:58:38.777Z,26.26
2018-11-14T05:59:38.780Z,26.18
2018-11-14T06:00:38.786Z,26.20
2018-11-14T06:01:38.787Z,26.26
2018-11-14T06:02:38.792Z,26.28
2018-11-14T06:03:38.795Z,26.30
2018-11-14T06:04:38.816Z,26.30
2018-11-14T06:05:38.801Z,26.32
2018-11-14T06:06:38.803Z,26.32
2018-11-14T06:07:38.901Z,26.37
2018-11-14T06:08:38.813Z,26.30
2018-11-14T06:09:38.817Z,26.36
2018-11-14T06:10:38.849Z,26.36
2018-11-14T06:11:38.825Z,26.37
2018-11-14T06:12:38.832Z,26.39
2018-11-14T06:13:38.901Z,26.39
2018-11-14T06:14:38.833Z,26.35
2018-11-14T06:15:38.839Z,26.32
2018-11-14T06:16:38.865Z,26.32
2018-11-14T06:17:38.845Z,26.35
2018-11-14T06:18:38.855Z,26.37
2018-11-14T06:19:38.870Z,26.39
2018-11-14T06:20:38.856Z,26.35
2018-11-14T06:21:38.862Z,26.36
2018-11-14T06:22:38.876Z,26.40
2018-11-14T06:23:38.976Z,26.21
2018-11-14T06:24:38.870Z,26.37
2018-11-14T06:25:38.877Z,26.28
2018-11-14T06:26:38.911Z,26.26
2018-11-14T06:27:38.880Z,26.26
2018-11-14T06:28:38.884Z,26.35
2018-11-14T06:29:38.893Z,26.36
2018-11-14T06:30:38.893Z,26.29
2018-11-14T06:31:38.894Z,26.33
2018-11-14T06:32:38.898Z,26.39
2018-11-14T06:33:38.902Z,26.32
2018-11-14T06:34:38.906Z,26.36
2018-11-14T06:35:38.911Z,26.33
2018-11-14T06:36:38.913Z,26.33
2018-11-14T06:37:38.917Z,26.36
2018-11-14T06:38:38.920Z,26.35
2018-11-14T06:39:38.923Z,26.39
2018-11-14T06:40:38.927Z,26.39
2018-11-14T06:41:39.004Z,26.39
2018-11-14T06:42:38.936Z,26.43
2018-11-14T06:43:38.936Z,26.44
2018-11-14T06:44:38.999Z,26.43
2018-11-14T06:45:38.946Z,26.36
2018-11-14T06:46:38.947Z,26.47
2018-11-14T06:47:38.952Z,26.44
2018-11-14T06:48:38.957Z,26.43
2018-11-14T06:49:38.960Z,26.45
2018-11-14T06:50:39.004Z,26.45
2018-11-14T06:51:38.967Z,26.45
2018-11-14T06:52:38.970Z,26.37
2018-11-14T06:53:38.978Z,26.44
2018-11-14T06:54:38.977Z,26.45
2018-11-14T06:55:38.982Z,26.50
2018-11-14T06:56:38.985Z,26.40
2018-11-14T06:57:38.987Z,26.39
2018-11-14T06:58:39.024Z,26.39
2018-11-14T06:59:38.999Z,26.37
2018-11-14T07:00:39.004Z,26.44
2018-11-14T07:01:39.006Z,26.43
2018-11-14T07:02:39.007Z,26.45
2018-11-14T07:03:39.030Z,26.37
2018-11-14T07:04:39.016Z,26.45
2018-11-14T07:05:39.063Z,26.37
2018-11-14T07:06:39.021Z,26.44
2018-11-14T07:07:39.024Z,26.43
2018-11-14T07:08:39.031Z,26.39
2018-11-14T07:09:39.033Z,26.36
2018-11-14T07:10:39.035Z,26.45
2018-11-14T07:11:39.041Z,26.44
2018-11-14T07:12:39.091Z,26.47
2018-11-14T07:13:39.047Z,26.44
2018-11-14T07:14:39.056Z,26.45
2018-11-14T07:15:39.054Z,26.47
2018-11-14T07:16:39.058Z,26.50
2018-11-14T07:17:39.089Z,26.50
2018-11-14T07:18:39.081Z,26.43
2018-11-14T07:19:39.070Z,26.44
2018-11-14T07:20:39.071Z,26.51
2018-11-14T07:21:39.077Z,26.50
2018-11-14T07:22:39.079Z,26.47
2018-11-14T07:23:39.115Z,26.51
2018-11-14T07:24:39.229Z,26.47
2018-11-14T07:25:39.091Z,26.51
2018-11-14T07:26:39.095Z,26.43
2018-11-14T07:27:39.098Z,26.43
2018-11-14T07:28:39.107Z,26.40
2018-11-14T07:29:39.105Z,26.45
2018-11-14T07:30:39.110Z,26.43
2018-11-14T07:31:39.112Z,26.44
2018-11-14T07:32:39.115Z,26.40
2018-11-14T07:33:39.120Z,26.35
2018-11-14T07:34:39.126Z,26.40
2018-11-14T07:35:39.127Z,26.40
2018-11-14T07:36:39.183Z,26.37
2018-11-14T07:37:39.201Z,26.36
2018-11-14T07:38:39.141Z,26.39
2018-11-14T07:39:39.140Z,26.40
2018-11-14T07:40:39.145Z,26.43
2018-11-14T07:41:39.150Z,26.45
2018-11-14T07:42:39.151Z,26.43
2018-11-14T07:43:39.313Z,26.47
2018-11-14T07:44:39.160Z,26.47
2018-11-14T07:45:39.163Z,26.40
2018-11-14T07:46:39.167Z,26.39
2018-11-14T07:47:39.169Z,26.47
2018-11-14T07:48:39.174Z,26.39
2018-11-14T07:49:39.181Z,26.44
2018-11-14T07:50:39.181Z,26.40
2018-11-14T07:51:39.185Z,26.47
2018-11-14T07:52:39.192Z,26.37
2018-11-14T07:53:39.195Z,26.44
2018-11-14T07:54:39.219Z,26.45
2018-11-14T07:55:39.199Z,26.40
2018-11-14T07:56:39.203Z,26.43
2018-11-14T07:57:39.211Z,26.47
2018-11-14T07:58:39.210Z,26.43
2018-11-14T07:59:39.213Z,26.43
2018-11-14T08:00:39.279Z,26.45
2018-11-14T08:01:39.223Z,26.43
2018-11-14T08:02:39.250Z,26.40
2018-11-14T08:03:39.272Z,26.43
2018-11-14T08:04:39.233Z,26.36
2018-11-14T08:05:39.291Z,26.43
2018-11-14T08:06:39.244Z,26.40
2018-11-14T08:07:39.264Z,26.43
2018-11-14T08:08:39.247Z,26.40
2018-11-14T08:09:39.251Z,26.45
2018-11-14T08:10:39.254Z,26.36
2018-11-14T08:11:39.256Z,26.43
2018-11-14T08:12:39.263Z,26.45
2018-11-14T08:13:39.265Z,26.43
2018-11-14T08:14:39.269Z,26.44
2018-11-14T08:15:39.271Z,26.43
2018-11-14T08:16:39.276Z,26.51
2018-11-14T08:17:39.352Z,26.36
2018-11-14T08:18:39.345Z,26.40
2018-11-14T08:19:39.303Z,26.45
2018-11-14T08:20:39.291Z,26.40
2018-11-14T08:21:39.295Z,26.43
2018-11-14T08:22:39.298Z,26.44
2018-11-14T08:23:39.302Z,26.43
2018-11-14T08:24:39.304Z,26.36
2018-11-14T08:25:39.306Z,26.45
2018-11-14T08:26:39.311Z,26.47
2018-11-14T08:27:39.315Z,26.44
2018-11-14T08:28:39.322Z,26.45
2018-11-14T08:29:39.324Z,26.35
2018-11-14T08:30:39.438Z,26.48
2018-11-14T08:31:39.331Z,26.47
2018-11-14T08:32:39.333Z,26.40
2018-11-14T08:33:39.349Z,26.39
2018-11-14T08:34:39.370Z,26.40
2018-11-14T08:35:39.345Z,26.43
2018-11-14T08:36:39.435Z,26.40
2018-11-14T08:37:39.353Z,26.45
2018-11-14T08:38:39.356Z,26.47
2018-11-14T08:39:39.419Z,26.43
2018-11-14T08:40:39.365Z,26.44
2018-11-14T08:41:39.364Z,26.43
2018-11-14T08:42:39.370Z,26.40
2018-11-14T08:43:39.374Z,26.37
2018-11-14T08:44:39.378Z,26.36
2018-11-14T08:45:39.382Z,26.43
2018-11-14T08:46:39.385Z,26.35
2018-11-14T08:47:39.388Z,26.45
2018-11-14T08:48:39.395Z,26.47
2018-11-14T08:49:39.396Z,26.44
2018-11-14T08:50:39.402Z,26.43
2018-11-14T08:51:39.404Z,26.44
2018-11-14T08:52:39.406Z,26.39
2018-11-14T08:53:39.413Z,26.43
2018-11-14T08:54:39.414Z,26.44
2018-11-14T08:55:39.421Z,26.47
2018-11-14T08:56:39.464Z,26.43
2018-11-14T08:57:39.425Z,26.45
2018-11-14T08:58:39.444Z,26.40
2018-11-14T08:59:39.431Z,26.39
2018-11-14T09:00:39.444Z,26.43
2018-11-14T09:01:39.441Z,26.43
2018-11-14T09:02:39.441Z,26.47
2018-11-14T09:03:39.525Z,26.47
2018-11-14T09:04:39.453Z,26.44
2018-11-14T09:05:39.454Z,26.43
2018-11-14T09:06:39.459Z,26.40
2018-11-14T09:07:39.526Z,26.39
2018-11-14T09:08:39.468Z,26.35
2018-11-14T09:09:39.469Z,26.36
2018-11-14T09:10:39.471Z,26.39
2018-11-14T09:11:39.475Z,26.35
2018-11-14T09:12:39.589Z,26.40
2018-11-14T09:13:39.484Z,26.36
2018-11-14T09:14:39.555Z,26.43
2018-11-14T09:15:39.490Z,26.44
2018-11-14T09:16:39.496Z,26.43
2018-11-14T09:17:39.497Z,26.39
2018-11-14T09:18:39.538Z,26.39
2018-11-14T09:19:39.504Z,26.39
2018-11-14T09:20:39.513Z,26.39
2018-11-14T09:21:39.513Z,26.36
2018-11-14T09:22:39.518Z,26.43
2018-11-14T09:23:39.547Z,26.40
2018-11-14T09:24:39.531Z,26.35
2018-11-14T09:25:39.527Z,26.35
2018-11-14T09:26:39.529Z,26.43
2018-11-14T09:27:39.534Z,26.40
2018-11-14T09:28:39.538Z,26.39
2018-11-14T09:29:39.543Z,26.37
2018-11-14T09:30:39.551Z,26.40
2018-11-14T09:31:39.549Z,26.40
2018-11-14T09:32:39.553Z,26.36
2018-11-14T09:33:39.557Z,26.33
2018-11-14T09:34:39.609Z,26.39
2018-11-14T09:35:39.563Z,26.37
2018-11-14T09:36:39.569Z,26.39
2018-11-14T09:37:39.571Z,26.40
2018-11-14T09:38:39.576Z,26.39
2018-11-14T09:39:39.579Z,26.36
2018-11-14T09:40:39.612Z,26.32
2018-11-14T09:41:39.586Z,26.33
2018-11-14T09:42:39.588Z,26.43
2018-11-14T09:43:39.593Z,26.43
2018-11-14T09:44:39.691Z,26.37
2018-11-14T09:45:39.655Z,26.39
2018-11-14T09:46:39.604Z,26.39
2018-11-14T09:47:39.607Z,26.39
2018-11-14T09:48:39.613Z,26.39
2018-11-14T09:49:39.615Z,26.37
2018-11-14T09:50:39.617Z,26.40
2018-11-14T09:51:39.622Z,26.37
2018-11-14T09:52:39.624Z,26.36
2018-11-14T09:53:39.629Z,26.47
2018-11-14T09:54:39.633Z,26.44
2018-11-14T09:55:39.642Z,26.44
2018-11-14T09:56:39.649Z,26.44
2018-11-14T09:57:39.643Z,26.43
2018-11-14T09:58:39.662Z,26.45
2018-11-14T09:59:39.648Z,26.35
2018-11-14T10:00:39.667Z,26.36
2018-11-14T10:01:39.662Z,26.45
2018-11-14T10:02:39.708Z,26.44
2018-11-14T10:03:39.728Z,26.44
2018-11-14T10:04:39.669Z,26.44
2018-11-14T10:05:39.674Z,26.52
2018-11-14T10:06:39.674Z,26.47
2018-11-14T10:07:39.687Z,26.43
2018-11-14T10:08:39.685Z,26.40
2018-11-14T10:09:39.686Z,26.48
2018-11-14T10:10:39.689Z,26.40
2018-11-14T10:11:39.730Z,26.43
2018-11-14T10:12:39.696Z,26.43
2018-11-14T10:13:39.704Z,26.48
2018-11-14T10:14:39.705Z,26.47
2018-11-14T10:15:39.834Z,26.40
2018-11-14T10:16:39.711Z,26.48
2018-11-14T10:17:39.718Z,26.44
2018-11-14T10:18:39.729Z,26.39
2018-11-14T10:19:39.721Z,26.47
2018-11-14T10:20:39.746Z,26.45
2018-11-14T10:21:39.875Z,26.51
2018-11-14T10:22:39.733Z,26.50
2018-11-14T10:23:39.737Z,26.43
2018-11-14T10:24:39.741Z,26.40
2018-11-14T10:25:39.752Z,26.45
2018-11-14T10:26:39.800Z,26.43
2018-11-14T10:27:39.751Z,26.48
2018-11-14T10:28:39.768Z,26.45
2018-11-14T10:29:39.762Z,26.40
2018-11-14T10:30:39.762Z,26.43
2018-11-14T10:31:39.902Z,26.47
2018-11-14T10:32:39.768Z,26.43
2018-11-14T10:33:39.774Z,26.44
2018-11-14T10:34:39.777Z,26.43
2018-11-14T10:35:39.783Z,26.39
2018-11-14T10:36:39.785Z,26.37
2018-11-14T10:37:39.788Z,26.43
2018-11-14T10:38:39.827Z,26.37
2018-11-14T10:39:39.794Z,26.36
2018-11-14T10:40:39.800Z,26.39
2018-11-14T10:41:39.807Z,26.40
2018-11-14T10:42:39.810Z,26.44
2018-11-14T10:43:39.813Z,26.37
2018-11-14T10:44:39.816Z,26.39
2018-11-14T10:45:39.818Z,26.36
2018-11-14T10:46:39.820Z,26.43
2018-11-14T10:47:39.824Z,26.40
2018-11-14T10:48:39.851Z,26.40
2018-11-14T10:49:39.831Z,26.36
2018-11-14T10:50:39.837Z,26.40
2018-11-14T10:51:39.881Z,26.39
2018-11-14T10:52:39.846Z,26.36
2018-11-14T10:53:39.846Z,26.39
2018-11-14T10:54:39.849Z,26.36
2018-11-14T10:55:39.852Z,26.36
2018-11-14T10:56:39.856Z,26.39
2018-11-14T10:57:39.864Z,26.35
2018-11-14T10:58:39.866Z,26.35
2018-11-14T10:59:39.869Z,26.36
2018-11-14T11:00:39.875Z,26.35
2018-11-14T11:01:39.881Z,26.33
2018-11-14T11:02:39.879Z,26.43
2018-11-14T11:03:39.892Z,26.35
2018-11-14T11:04:39.889Z,26.33
2018-11-14T11:05:39.894Z,26.35
2018-11-14T11:06:39.890Z,26.36
2018-11-14T11:07:39.897Z,26.40
2018-11-14T11:08:39.991Z,26.37
2018-11-14T11:09:39.906Z,26.35
2018-11-14T11:10:39.906Z,26.37
2018-11-14T11:11:39.911Z,26.32
2018-11-14T11:12:39.916Z,26.36
2018-11-14T11:13:39.980Z,26.30
2018-11-14T11:14:39.923Z,26.37
2018-11-14T11:15:39.929Z,26.39
2018-11-14T11:16:39.981Z,26.39
2018-11-14T11:17:39.935Z,26.33
2018-11-14T11:18:39.946Z,26.33
2018-11-14T11:19:39.949Z,26.36
2018-11-14T11:20:39.946Z,26.32
2018-11-14T11:21:39.948Z,26.35
2018-11-14T11:22:39.950Z,26.33
2018-11-14T11:23:40.165Z,26.35
2018-11-14T11:24:39.959Z,26.37
2018-11-14T11:25:39.961Z,26.39
2018-11-14T11:26:39.979Z,26.36
2018-11-14T11:27:39.973Z,26.43
2018-11-14T11:28:39.980Z,26.37
2018-11-14T11:29:39.977Z,26.36
2018-11-14T11:30:40.057Z,26.37
2018-11-14T11:31:39.984Z,26.39
2018-11-14T11:32:40.053Z,26.39
2018-11-14T11:33:39.993Z,26.37
2018-11-14T11:34:40.005Z,26.40
2018-11-14T11:35:40.004Z,26.37
2018-11-14T11:36:40.004Z,26.37
2018-11-14T11:37:40.012Z,26.40
2018-11-14T11:38:40.013Z,26.45
2018-11-14T11:39:40.026Z,26.44
2018-11-14T11:40:40.024Z,26.47
2018-11-14T11:41:40.025Z,26.47
2018-11-14T11:42:40.034Z,26.39
2018-11-14T11:43:40.028Z,26.47
2018-11-14T11:44:40.033Z,26.43
2018-11-14T11:45:40.039Z,26.40
2018-11-14T11:46:40.038Z,26.43
2018-11-14T11:47:40.043Z,26.43
2018-11-14T11:48:40.047Z,26.45
2018-11-14T11:49:40.069Z,26.40
2018-11-14T11:50:40.054Z,26.37
2018-11-14T11:51:40.066Z,26.36
2018-11-14T11:52:40.060Z,26.40
2018-11-14T11:53:40.065Z,26.43
2018-11-14T11:54:40.068Z,26.44
2018-11-14T11:55:40.071Z,26.43
2018-11-14T11:56:40.074Z,26.39
2018-11-14T11:57:40.248Z,26.45
2018-11-14T11:58:40.082Z,26.43
2018-11-14T11:59:40.218Z,26.45
2018-11-14T12:00:40.283Z,26.43
2018-11-14T12:01:40.092Z,26.39
2018-11-14T12:02:40.095Z,26.39
2018-11-14T12:03:40.111Z,26.47
2018-11-14T12:04:40.105Z,26.48
2018-11-14T12:05:40.124Z,26.44
2018-11-14T12:06:40.126Z,26.47
2018-11-14T12:07:40.114Z,26.45
2018-11-14T12:08:40.119Z,26.47
2018-11-14T12:09:40.123Z,26.40
2018-11-14T12:10:40.187Z,26.43
2018-11-14T12:11:40.130Z,26.39
2018-11-14T12:12:40.133Z,26.47
2018-11-14T12:13:40.217Z,26.47
2018-11-14T12:14:40.140Z,26.45
2018-11-14T12:15:40.145Z,26.43
2018-11-14T12:16:40.180Z,26.45
2018-11-14T12:17:40.222Z,26.40
2018-11-14T12:18:40.154Z,26.43
2018-11-14T12:19:40.159Z,26.40
2018-11-14T12:20:40.163Z,26.43
2018-11-14T12:21:40.166Z,26.44
2018-11-14T12:22:40.169Z,26.45
2018-11-14T12:23:40.326Z,26.35
2018-11-14T12:24:40.180Z,26.35
2018-11-14T12:25:40.180Z,26.36
2018-11-14T12:26:40.245Z,26.35
2018-11-14T12:27:40.242Z,26.21
2018-11-14T12:28:40.191Z,26.29
2018-11-14T12:29:40.193Z,26.35
2018-11-14T12:30:40.386Z,26.36
2018-11-14T12:31:40.202Z,26.33
2018-11-14T12:32:40.206Z,26.37
2018-11-14T12:33:40.210Z,26.35
2018-11-14T12:34:40.365Z,26.37
2018-11-14T12:35:40.308Z,26.39
2018-11-14T12:36:40.283Z,26.45
2018-11-14T12:37:40.228Z,26.37
2018-11-14T12:38:40.242Z,26.35
2018-11-14T12:39:40.232Z,26.36
2018-11-14T12:40:40.235Z,26.37
2018-11-14T12:41:40.239Z,26.36
2018-11-14T12:42:40.242Z,26.36
2018-11-14T12:43:40.295Z,26.35
2018-11-14T12:44:40.250Z,26.40
2018-11-14T12:45:40.254Z,26.39
2018-11-14T12:46:40.256Z,26.39
2018-11-14T12:47:40.264Z,26.33
2018-11-14T12:48:40.265Z,26.37
2018-11-14T12:49:40.270Z,26.30
2018-11-14T12:50:40.271Z,26.35
2018-11-14T12:51:40.271Z,26.36
2018-11-14T12:52:40.431Z,26.39